Decoded Metar for KPLD ( in ) (IATA:) | Meteo·Mobile Aviation Weather
aviador You're here:

KPLD Decoded Metar

in
Report Time2018-12-11 08:35:00
UTC Time2018-12-11 08:48:16
Flight Rules mvfr MVFR
WindCalm
Visibility6437 m
Phenomena:Mist
Clouds:N/A
CeilingNone
Temp-6°C
Dew Point-6°C (100% RH)
AAT-8.7°C
QNH1021 hPa
Raw Report
KPLD 110835Z AUTO 00000KT 4SM BR CLR M06/M06 A3016 RMK AO2=

Extra information for KPLD:More info

Social comments